createdAt,value
2023-04-05T00:02:18.769Z,9.23
2023-04-05T00:06:02.637Z,9.33
2023-04-05T00:09:45.322Z,9.00
2023-04-05T00:13:27.945Z,9.63
2023-04-05T00:17:11.987Z,9.20
2023-04-05T00:20:56.681Z,8.80
2023-04-05T00:24:41.992Z,9.17
2023-04-05T00:28:24.693Z,9.33
2023-04-05T00:32:07.382Z,9.17
2023-04-05T00:35:50.064Z,8.83
2023-04-05T00:39:34.103Z,8.83
2023-04-05T00:43:17.868Z,9.63
2023-04-05T00:47:00.546Z,8.47
2023-04-05T00:50:43.662Z,9.40
2023-04-05T00:54:26.602Z,9.63
2023-04-05T00:58:10.895Z,8.60
2023-04-05T01:02:02.314Z,7.53
2023-04-05T01:05:48.969Z,8.13
2023-04-05T01:09:39.072Z,8.00
2023-04-05T01:13:24.067Z,7.87
2023-04-05T01:17:09.581Z,7.87
2023-04-05T01:20:58.274Z,7.63
2023-04-05T01:24:52.881Z,7.90
2023-04-05T01:29:10.870Z,7.93
2023-04-05T01:33:06.632Z,7.07
2023-04-05T01:36:56.003Z,7.57
2023-04-05T01:40:39.902Z,6.83
2023-04-05T01:44:22.727Z,8.07
2023-04-05T01:48:07.543Z,7.00
2023-04-05T01:51:50.246Z,7.40
2023-04-05T01:55:32.902Z,7.30
2023-04-05T01:59:15.573Z,6.40
2023-04-05T02:02:58.294Z,6.97
2023-04-05T02:06:42.498Z,7.27
2023-04-05T02:10:25.697Z,6.47
2023-04-05T02:14:08.597Z,7.10
2023-04-05T02:17:54.053Z,7.23
2023-04-05T02:21:36.951Z,6.90
2023-04-05T02:25:21.159Z,7.23
2023-04-05T02:29:03.824Z,7.00
2023-04-05T02:32:46.918Z,6.77
2023-04-05T02:36:29.659Z,6.90
2023-04-05T02:40:14.926Z,6.80
2023-04-05T02:44:00.053Z,7.40
2023-04-05T02:47:42.737Z,6.70
2023-04-05T02:51:26.993Z,6.43
2023-04-05T02:55:09.905Z,7.00
2023-04-05T02:58:52.544Z,7.13
2023-04-05T03:02:37.625Z,6.73
2023-04-05T03:06:20.789Z,7.20
2023-04-05T03:10:04.997Z,7.47
2023-04-05T03:13:47.660Z,7.03
2023-04-05T03:17:30.442Z,7.70
2023-04-05T03:21:17.850Z,7.17
2023-04-05T03:25:00.547Z,7.50
2023-04-05T03:28:45.036Z,7.17
2023-04-05T03:32:27.755Z,7.20
2023-04-05T03:36:10.528Z,6.93
2023-04-05T03:39:54.584Z,7.10
2023-04-05T03:43:37.882Z,7.37
2023-04-05T03:47:20.872Z,7.07
2023-04-05T03:51:03.463Z,7.90
2023-04-05T03:54:46.099Z,8.07
2023-04-05T03:58:30.150Z,6.97
2023-04-05T04:02:12.935Z,7.33
2023-04-05T04:05:55.747Z,7.90
2023-04-05T04:09:38.541Z,7.17
2023-04-05T04:13:21.200Z,7.80
2023-04-05T04:17:05.363Z,7.60
2023-04-05T04:20:48.664Z,6.80
2023-04-05T04:24:32.545Z,6.70
2023-04-05T04:28:19.598Z,7.50
2023-04-05T04:32:02.313Z,6.83
2023-04-05T04:35:47.122Z,6.67
2023-04-05T04:39:31.461Z,7.20
2023-04-05T04:43:17.042Z,7.43
2023-04-05T04:46:59.680Z,7.10
2023-04-05T04:50:43.402Z,6.70
2023-04-05T04:54:29.355Z,7.13
2023-04-05T04:58:12.856Z,7.60
2023-04-05T05:01:55.671Z,6.73
2023-04-05T05:05:43.439Z,6.70
2023-04-05T05:09:27.534Z,7.10
2023-04-05T05:13:11.128Z,7.87
2023-04-05T05:16:54.882Z,7.40
2023-04-05T05:20:37.734Z,6.80
2023-04-05T05:24:20.641Z,6.47
2023-04-05T05:28:04.866Z,6.57
2023-04-05T05:31:47.488Z,6.60
2023-04-05T05:35:30.168Z,6.83
2023-04-05T05:39:12.864Z,6.83
2023-04-05T05:42:55.595Z,6.70
2023-04-05T05:46:39.595Z,6.67
2023-04-05T05:50:22.350Z,6.97
2023-04-05T05:54:05.210Z,7.13
2023-04-05T05:57:47.895Z,6.40
2023-04-05T06:01:30.585Z,6.60
2023-04-05T06:05:14.591Z,7.23
2023-04-05T06:08:57.257Z,6.70
2023-04-05T06:12:39.898Z,6.63
2023-04-05T06:16:22.871Z,7.17
2023-04-05T06:20:06.405Z,6.73
2023-04-05T06:23:50.614Z,6.10
2023-04-05T06:27:33.267Z,6.73
2023-04-05T06:31:17.369Z,6.37
2023-04-05T06:35:01.348Z,5.87
2023-04-05T06:38:44.105Z,6.90
2023-04-05T06:42:28.322Z,6.73
2023-04-05T06:46:12.601Z,7.80
2023-04-05T06:49:55.407Z,6.70
2023-04-05T06:53:38.017Z,7.43
2023-04-05T06:57:20.705Z,7.33
2023-04-05T07:01:05.995Z,7.20
2023-04-05T07:04:49.126Z,7.03
2023-04-05T07:08:33.589Z,6.97
2023-04-05T07:12:16.206Z,6.80
2023-04-05T07:16:02.575Z,7.37
2023-04-05T07:19:46.757Z,7.10
2023-04-05T07:23:29.608Z,6.93
2023-04-05T07:27:12.227Z,6.53
2023-04-05T07:30:54.946Z,7.10
2023-04-05T07:34:38.980Z,6.23
2023-04-05T07:38:23.101Z,7.37
2023-04-05T07:42:06.350Z,6.30
2023-04-05T07:45:48.984Z,6.37
2023-04-05T07:49:31.658Z,5.90
2023-04-05T07:53:14.474Z,6.23
2023-04-05T07:56:58.547Z,5.90
2023-04-05T08:00:41.337Z,5.70
2023-04-05T08:04:26.196Z,5.93
2023-04-05T08:08:11.085Z,5.03
2023-04-05T08:11:53.706Z,6.23
2023-04-05T08:15:37.719Z,5.70
2023-04-05T08:19:20.383Z,6.50
2023-04-05T08:23:03.025Z,5.73
2023-04-05T08:26:46.052Z,5.73
2023-04-05T08:30:28.681Z,6.27
2023-04-05T08:34:12.690Z,6.00
2023-04-05T08:37:55.318Z,6.13
2023-04-05T08:41:42.531Z,6.10
2023-04-05T08:45:25.866Z,6.20
2023-04-05T08:49:11.749Z,6.20
2023-04-05T08:52:55.876Z,5.87
2023-04-05T08:56:39.391Z,6.30
2023-04-05T09:00:22.332Z,6.00
2023-04-05T09:04:07.882Z,5.60
2023-04-05T09:07:51.235Z,6.03
2023-04-05T09:11:35.841Z,5.70
2023-04-05T09:15:21.607Z,5.50
2023-04-05T09:19:04.325Z,5.70
2023-04-05T09:22:47.609Z,6.43
2023-04-05T09:26:31.950Z,5.77
2023-04-05T09:30:23.279Z,5.53
2023-04-05T09:34:06.898Z,5.63
2023-04-05T09:37:54.358Z,4.80
2023-04-05T09:41:37.708Z,5.23
2023-04-05T09:45:22.477Z,5.17
2023-04-05T09:49:07.021Z,5.60
2023-04-05T09:52:49.836Z,4.80
2023-04-05T09:56:37.300Z,5.35
2023-04-05T10:00:22.712Z,5.37
2023-04-05T10:04:05.663Z,4.80
2023-04-05T10:07:48.537Z,5.00
2023-04-05T10:11:31.381Z,5.13
2023-04-05T10:15:14.362Z,4.60
2023-04-05T10:18:58.417Z,4.90
2023-04-05T10:22:45.923Z,4.97
2023-04-05T10:26:37.915Z,5.60
2023-04-05T10:30:20.798Z,5.53
2023-04-05T10:34:06.778Z,4.83
2023-04-05T10:37:58.212Z,4.80
2023-04-05T10:41:44.397Z,4.90
2023-04-05T10:45:28.618Z,8.40
2023-04-05T10:49:20.907Z,9.63
2023-04-05T10:53:04.186Z,5.93
2023-04-05T10:56:47.068Z,5.87
2023-04-05T11:00:30.214Z,5.30
2023-04-05T11:04:15.297Z,5.27
2023-04-05T11:08:01.978Z,5.03
2023-04-05T11:11:45.858Z,5.43
2023-04-05T11:15:33.020Z,4.97
2023-04-05T11:19:18.760Z,5.10
2023-04-05T11:23:01.388Z,4.87
2023-04-05T11:26:57.572Z,5.47
2023-04-05T11:30:47.788Z,5.60
2023-04-05T11:34:37.614Z,5.33
2023-04-05T11:38:23.230Z,5.20
2023-04-05T11:42:07.529Z,5.17
2023-04-05T11:45:50.252Z,5.07
2023-04-05T11:49:34.715Z,5.37
2023-04-05T11:53:18.473Z,4.93
2023-04-05T11:57:01.961Z,5.83
2023-04-05T12:00:45.936Z,5.93
2023-04-05T12:04:28.611Z,5.10
2023-04-05T12:08:12.713Z,5.47
2023-04-05T12:11:56.452Z,5.40
2023-04-05T12:15:40.736Z,5.60
2023-04-05T12:19:23.842Z,5.60
2023-04-05T12:23:06.473Z,5.50
2023-04-05T12:26:50.534Z,5.37
2023-04-05T12:30:36.603Z,5.43
2023-04-05T12:34:25.775Z,5.00
2023-04-05T12:38:10.345Z,5.57
2023-04-05T12:42:01.291Z,5.13
2023-04-05T12:45:44.562Z,5.67
2023-04-05T12:49:28.870Z,4.90
2023-04-05T12:53:17.927Z,5.53
2023-04-05T12:57:04.175Z,5.67
2023-04-05T13:00:47.161Z,5.80
2023-04-05T13:04:32.565Z,6.07
2023-04-05T13:08:15.548Z,6.10
2023-04-05T13:11:58.385Z,6.00
2023-04-05T13:15:42.621Z,5.97
2023-04-05T13:19:25.741Z,5.80
2023-04-05T13:23:11.001Z,5.60
2023-04-05T13:26:53.660Z,6.30
2023-04-05T13:30:36.402Z,6.33
2023-04-05T13:34:20.478Z,5.50
2023-04-05T13:38:04.562Z,5.90
2023-04-05T13:41:47.561Z,5.37
2023-04-05T13:45:31.384Z,5.60
2023-04-05T13:49:14.024Z,5.67
2023-04-05T13:52:58.019Z,5.50
2023-04-05T13:56:40.865Z,5.77
2023-04-05T14:00:23.809Z,5.43
2023-04-05T14:04:06.576Z,5.33
2023-04-05T14:07:52.058Z,5.70
2023-04-05T14:11:36.375Z,5.60
2023-04-05T14:15:19.194Z,5.70
2023-04-05T14:19:01.939Z,5.57
2023-04-05T14:22:44.717Z,5.90
2023-04-05T14:26:28.785Z,5.40
2023-04-05T14:30:13.985Z,5.27
2023-04-05T14:33:56.789Z,5.60
2023-04-05T14:37:39.706Z,5.67
2023-04-05T14:41:22.465Z,5.40
2023-04-05T14:45:05.573Z,5.90
2023-04-05T14:48:49.662Z,5.63
2023-04-05T14:52:32.398Z,6.10
2023-04-05T14:56:15.146Z,6.27
2023-04-05T14:59:57.976Z,6.37
2023-04-05T15:03:40.935Z,5.93
2023-04-05T15:07:25.200Z,5.40
2023-04-05T15:11:08.112Z,5.10
2023-04-05T15:14:52.831Z,5.43
2023-04-05T15:18:35.737Z,5.40
2023-04-05T15:22:20.634Z,5.20
2023-04-05T15:26:04.825Z,5.97
2023-04-05T15:29:47.585Z,5.40
2023-04-05T15:33:30.353Z,4.83
2023-04-05T15:37:13.232Z,5.57
2023-04-05T15:40:57.859Z,5.00
2023-04-05T15:44:43.070Z,5.17
2023-04-05T15:48:25.890Z,5.30
2023-04-05T15:52:09.919Z,4.90
2023-04-05T15:55:52.691Z,4.87
2023-04-05T15:59:35.487Z,4.30
2023-04-05T16:03:19.781Z,5.17
2023-04-05T16:07:02.525Z,5.00
2023-04-05T16:10:45.408Z,4.80
2023-04-05T16:14:28.415Z,5.13
2023-04-05T16:18:14.152Z,5.60
2023-04-05T16:22:00.017Z,5.40
2023-04-05T16:25:42.813Z,5.63
2023-04-05T16:29:25.619Z,5.17
2023-04-05T16:33:08.590Z,5.73
2023-04-05T16:36:51.582Z,5.10
2023-04-05T16:40:35.674Z,5.60
2023-04-05T16:44:18.401Z,5.70
2023-04-05T16:48:01.302Z,5.50
2023-04-05T16:51:44.058Z,5.07
2023-04-05T16:55:26.815Z,5.97
2023-04-05T16:59:11.197Z,5.60
2023-04-05T17:02:54.814Z,5.23
2023-04-05T17:06:38.029Z,5.63
2023-04-05T17:10:20.718Z,6.37
2023-04-05T17:14:03.457Z,5.50
2023-04-05T17:17:47.567Z,5.47
2023-04-05T17:21:30.284Z,5.50
2023-04-05T17:25:13.027Z,5.20
2023-04-05T17:28:58.767Z,5.50
2023-04-05T17:32:41.588Z,5.50
2023-04-05T17:36:26.054Z,6.70
2023-04-05T17:40:09.734Z,6.57
2023-04-05T17:43:52.501Z,5.80
2023-04-05T17:47:35.892Z,5.80
2023-04-05T17:51:20.568Z,5.70
2023-04-05T17:55:05.087Z,5.47
2023-04-05T17:58:48.480Z,5.67
2023-04-05T18:02:31.329Z,5.73
2023-04-05T18:06:14.122Z,5.73
2023-04-05T18:09:56.932Z,6.33
2023-04-05T18:13:41.063Z,5.80
2023-04-05T18:17:23.814Z,5.13
2023-04-05T18:21:06.710Z,5.60
2023-04-05T18:24:49.457Z,5.77
2023-04-05T18:28:32.231Z,5.67
2023-04-05T18:32:16.613Z,5.57
2023-04-05T18:35:59.479Z,5.47
2023-04-05T18:39:42.213Z,5.40
2023-04-05T18:43:24.990Z,5.23
2023-04-05T18:47:07.835Z,6.20
2023-04-05T18:50:51.966Z,5.03
2023-04-05T18:54:34.750Z,4.70
2023-04-05T18:58:17.478Z,5.00
2023-04-05T19:02:00.273Z,5.00
2023-04-05T19:05:43.061Z,5.30
2023-04-05T19:09:27.311Z,5.20
2023-04-05T19:13:10.041Z,4.80
2023-04-05T19:16:52.795Z,5.37
2023-04-05T19:20:35.543Z,5.23
2023-04-05T19:24:20.791Z,5.63
2023-04-05T19:28:05.041Z,5.10
2023-04-05T19:31:48.070Z,5.07
2023-04-05T19:35:32.342Z,5.33
2023-04-05T19:39:15.326Z,4.73
2023-04-05T19:42:59.648Z,6.30
2023-04-05T19:46:43.860Z,5.90
2023-04-05T19:50:51.796Z,5.63
2023-04-05T19:54:34.693Z,5.33
2023-04-05T19:58:27.559Z,5.70
2023-04-05T20:02:25.052Z,5.47
2023-04-05T20:06:09.775Z,5.93
2023-04-05T20:09:53.203Z,6.13
2023-04-05T20:13:43.195Z,5.70
2023-04-05T20:17:28.385Z,6.33
2023-04-05T20:21:12.052Z,6.40
2023-04-05T20:24:54.827Z,6.70
2023-04-05T20:28:39.484Z,6.53
2023-04-05T20:32:23.152Z,6.53
2023-04-05T20:36:10.851Z,6.70
2023-04-05T20:39:54.399Z,6.93
2023-04-05T20:43:37.212Z,8.17
2023-04-05T20:47:19.939Z,8.07
2023-04-05T20:51:04.605Z,7.53
2023-04-05T20:54:49.830Z,8.20
2023-04-05T20:58:32.640Z,8.13
2023-04-05T21:02:15.428Z,8.00
2023-04-05T21:05:58.352Z,7.90
2023-04-05T21:09:41.114Z,7.50
2023-04-05T21:13:26.127Z,8.73
2023-04-05T21:17:08.890Z,8.23
2023-04-05T21:20:52.493Z,7.40
2023-04-05T21:24:35.335Z,7.37
2023-04-05T21:28:18.218Z,7.77
2023-04-05T21:32:02.335Z,7.80
2023-04-05T21:35:45.121Z,8.53
2023-04-05T21:39:27.890Z,8.40
2023-04-05T21:43:10.677Z,8.40
2023-04-05T21:46:53.424Z,8.53
2023-04-05T21:50:38.265Z,8.30
2023-04-05T21:54:21.012Z,9.40
2023-04-05T21:58:03.750Z,8.43
2023-04-05T22:01:46.536Z,8.93
2023-04-05T22:05:37.344Z,9.07
2023-04-05T22:09:22.961Z,8.63
2023-04-05T22:13:05.904Z,8.90
2023-04-05T22:16:48.716Z,8.60
2023-04-05T22:20:31.853Z,9.07
2023-04-05T22:24:15.510Z,8.63
2023-04-05T22:28:00.604Z,8.90
2023-04-05T22:31:43.443Z,9.53
2023-04-05T22:35:26.267Z,8.90
2023-04-05T22:39:09.295Z,8.30
2023-04-05T22:42:52.158Z,8.77
2023-04-05T22:46:37.591Z,9.13
2023-04-05T22:50:20.539Z,8.00
2023-04-05T22:54:03.312Z,8.40
2023-04-05T22:57:46.080Z,7.10
2023-04-05T23:01:28.894Z,7.80
2023-04-05T23:05:13.136Z,8.13
2023-04-05T23:08:55.925Z,8.07
2023-04-05T23:12:38.756Z,8.10
2023-04-05T23:16:21.960Z,7.90
2023-04-05T23:20:05.831Z,8.77
2023-04-05T23:23:49.978Z,7.93
2023-04-05T23:27:32.964Z,7.60
2023-04-05T23:31:15.853Z,7.83
2023-04-05T23:34:58.553Z,8.10
2023-04-05T23:38:41.266Z,7.93
2023-04-05T23:42:25.481Z,8.27
2023-04-05T23:46:08.414Z,7.20
2023-04-05T23:49:51.112Z,7.40
2023-04-05T23:53:33.895Z,7.00
2023-04-05T23:57:16.783Z,6.83
